Terminal Aerodrome Forecast
Issued by NWS Atlanta, GA

Home | Current Version | Previous Version | Text Only | Print | Product List | Glossary On
Versions: 1 2 3 4 5 6 7 8 9 10 11 12 13 14 15 16 17 18 19 20 21 22 23 24 25 26 27
000
FTUS42 KFFC 011733
TAFAHN
TAF
KAHN 011733Z 0118/0218 16007KT P6SM OVC040
     FM012100 17008KT 6SM -RA SCT015 OVC040
     FM020300 19010KT 3SM RA OVC008
     FM020600 19014G19KT 3SM -RA OVC008
     FM021000 24011KT 6SM -RA SCT008 OVC015
     FM021300 27012G17KT 6SM -RA OVC025
     FM021400 29013G18KT P6SM OVC030
     FM021700 29012G25KT P6SM BKN040=

USA.gov is the U.S. government's official web portal to all federal, state and local government web resources and services.